KTNU/TNU METAR and TAF weather

Enter ICAO airport designator
Station Type Date Time Source
KTNU METAR 2021/10/20 06:35 UTC NOAA

KTNU 200635Z AUTO 11007KT 10SM CLR 13/10 A2997 RMK A01


Station Type Date Time Source
KTNU Decoded METAR 2021/10/20 06:35 UTC NOAA

Newton Municipal, IA, United States (KTNU) 41-41N 093-01W
Oct 20, 2021 - 02:35 AM EDT / 2021.10.20 0635 UTC
Wind: from the ESE (110 degrees) at 8 MPH (7 KT):0
Visibility: 10 mile(s):0
Sky conditions: clear
Temperature: 55 F (13 C)
Dew Point: 50 F (10 C)
Relative Humidity: 81%
Pressure (altimeter): 29.97 in. Hg (1014 hPa)
ob: KTNU 200635Z AUTO 11007KT 10SM CLR 13/10 A2997 RMK A01
cycle: 6

Station Type Date Time Source
KTNU TAF UTC NOAA

Error!

Example: see airport list